createdAt,value
2018-09-11T00:01:46.381Z,60.24
2018-09-11T00:04:15.434Z,61.08
2018-09-11T00:06:44.600Z,61.08
2018-09-11T00:09:14.153Z,60.81
2018-09-11T00:11:44.182Z,60.54
2018-09-11T00:14:13.297Z,60.71
2018-09-11T00:16:42.390Z,61.04
2018-09-11T00:19:11.557Z,62.85
2018-09-11T00:21:40.705Z,61.81
2018-09-11T00:24:09.796Z,61.37
2018-09-11T00:26:38.996Z,62.43
2018-09-11T00:29:08.096Z,61.74
2018-09-11T00:31:37.296Z,62.19
2018-09-11T00:34:06.476Z,61.95
2018-09-11T00:36:35.588Z,62.95
2018-09-11T00:39:05.712Z,61.65
2018-09-11T00:41:34.853Z,61.14
2018-09-11T00:44:03.988Z,61.18
2018-09-11T00:46:33.336Z,60.83
2018-09-11T00:49:02.502Z,61.74
2018-09-11T00:51:31.696Z,61.45
2018-09-11T00:54:00.874Z,60.71
2018-09-11T00:56:30.086Z,60.36
2018-09-11T00:58:59.290Z,60.35
2018-09-11T01:01:28.467Z,60.25
2018-09-11T01:03:57.633Z,60.24
2018-09-11T01:06:26.781Z,60.30
2018-09-11T01:08:56.010Z,60.24
2018-09-11T01:11:25.168Z,59.88
2018-09-11T01:13:54.327Z,60.06
2018-09-11T01:16:23.411Z,60.62
2018-09-11T01:18:52.559Z,60.88
2018-09-11T01:21:21.673Z,61.65
2018-09-11T01:23:50.789Z,60.29
2018-09-11T01:26:19.949Z,61.20
2018-09-11T01:28:49.795Z,61.16
2018-09-11T01:31:18.974Z,60.45
2018-09-11T01:33:48.037Z,61.26
2018-09-11T01:36:17.160Z,61.48
2018-09-11T01:38:46.248Z,61.80
2018-09-11T01:41:15.353Z,62.86
2018-09-11T01:43:44.448Z,61.41
2018-09-11T01:46:13.646Z,62.77
2018-09-11T01:48:42.825Z,61.96
2018-09-11T01:51:11.932Z,61.13
2018-09-11T01:53:41.021Z,60.95
2018-09-11T01:56:10.197Z,62.03
2018-09-11T01:58:39.409Z,62.09
2018-09-11T02:01:08.497Z,62.15
2018-09-11T02:03:37.625Z,63.41
2018-09-11T02:06:06.717Z,64.46
2018-09-11T02:08:35.824Z,64.84
2018-09-11T02:11:05.782Z,65.81
2018-09-11T02:13:34.907Z,64.59
2018-09-11T02:16:04.177Z,64.50
2018-09-11T02:18:33.313Z,66.12
2018-09-11T02:21:02.531Z,63.64
2018-09-11T02:23:31.645Z,64.06
2018-09-11T02:26:00.729Z,64.54
2018-09-11T02:28:29.822Z,63.65
2018-09-11T02:30:58.917Z,63.91
2018-09-11T02:33:28.003Z,65.14
2018-09-11T02:35:57.310Z,66.75
2018-09-11T02:38:26.568Z,65.57
2018-09-11T02:40:55.644Z,65.21
2018-09-11T02:43:24.778Z,65.76
2018-09-11T02:45:53.957Z,65.73
2018-09-11T02:48:23.031Z,66.10
2018-09-11T02:50:52.156Z,65.86
2018-09-11T02:53:21.353Z,66.57
2018-09-11T02:55:50.483Z,66.72
2018-09-11T02:58:19.568Z,68.26
2018-09-11T03:00:48.745Z,67.81
2018-09-11T03:03:17.930Z,68.81
2018-09-11T03:05:47.166Z,69.81
2018-09-11T03:08:16.333Z,70.15
2018-09-11T03:10:45.415Z,70.97
2018-09-11T03:13:14.533Z,71.63
2018-09-11T03:15:43.685Z,71.85
2018-09-11T03:18:12.789Z,72.64
2018-09-11T03:20:41.905Z,72.18
2018-09-11T03:23:10.972Z,72.40
2018-09-11T03:25:40.096Z,74.26
2018-09-11T03:28:09.213Z,74.91
2018-09-11T03:30:38.372Z,74.49
2018-09-11T03:33:07.500Z,74.65
2018-09-11T03:35:36.730Z,74.43
2018-09-11T03:38:06.182Z,74.61
2018-09-11T03:40:35.421Z,74.55
2018-09-11T03:43:04.516Z,74.88
2018-09-11T03:45:33.621Z,75.04
2018-09-11T03:48:02.754Z,75.00
2018-09-11T03:50:31.948Z,75.06
2018-09-11T03:53:01.074Z,75.03
2018-09-11T03:55:30.272Z,75.05
2018-09-11T03:57:59.588Z,74.82
2018-09-11T04:00:28.758Z,75.10
2018-09-11T04:02:57.944Z,75.29
2018-09-11T04:05:27.221Z,75.01
2018-09-11T04:07:56.352Z,75.94
2018-09-11T04:10:25.604Z,77.16
2018-09-11T04:12:54.693Z,76.54
2018-09-11T04:15:23.780Z,80.34
2018-09-11T04:17:52.955Z,78.45
2018-09-11T04:20:22.077Z,79.47
2018-09-11T04:22:51.149Z,78.85
2018-09-11T04:25:20.277Z,78.23
2018-09-11T04:27:49.535Z,80.22
2018-09-11T04:30:18.716Z,79.87
2018-09-11T04:32:47.897Z,80.56
2018-09-11T04:35:17.069Z,80.90
2018-09-11T04:37:46.165Z,83.41
2018-09-11T04:40:15.365Z,80.80
2018-09-11T04:42:44.501Z,80.82
2018-09-11T04:45:13.697Z,80.02
2018-09-11T04:47:42.815Z,79.12
2018-09-11T04:50:12.217Z,80.43
2018-09-11T04:52:41.420Z,79.35
2018-09-11T04:55:10.524Z,80.88
2018-09-11T04:57:39.668Z,82.88
2018-09-11T05:00:08.836Z,84.14
2018-09-11T05:02:38.008Z,82.78
2018-09-11T05:05:07.232Z,83.02
2018-09-11T05:07:36.501Z,81.61
2018-09-11T05:10:05.876Z,82.16
2018-09-11T05:12:35.076Z,81.88
2018-09-11T05:15:04.368Z,83.94
2018-09-11T05:17:33.828Z,82.68
2018-09-11T05:20:02.966Z,82.68
2018-09-11T05:22:32.162Z,83.46
2018-09-11T05:25:01.273Z,83.26
2018-09-11T05:27:30.477Z,83.62
2018-09-11T05:29:59.746Z,83.64
2018-09-11T05:32:28.974Z,84.03
2018-09-11T05:34:58.064Z,84.24
2018-09-11T05:37:27.230Z,84.58
2018-09-11T05:39:56.466Z,84.84
2018-09-11T05:42:25.909Z,85.98
2018-09-11T05:44:55.164Z,85.78
2018-09-11T05:47:24.363Z,86.23
2018-09-11T05:49:53.559Z,86.29
2018-09-11T05:52:22.723Z,86.75
2018-09-11T05:54:51.873Z,86.07
2018-09-11T05:57:21.056Z,85.43
2018-09-11T05:59:50.868Z,84.92
2018-09-11T06:02:19.967Z,84.14
2018-09-11T06:04:49.115Z,82.61
2018-09-11T06:07:18.379Z,82.52
2018-09-11T06:09:47.545Z,82.33
2018-09-11T06:12:16.726Z,81.84
2018-09-11T06:14:45.916Z,80.70
2018-09-11T06:17:15.242Z,80.23
2018-09-11T06:19:44.456Z,80.58
2018-09-11T06:22:13.537Z,78.86
2018-09-11T06:24:42.785Z,79.06
2018-09-11T06:27:11.924Z,78.88
2018-09-11T06:29:41.204Z,78.33
2018-09-11T06:32:10.318Z,78.46
2018-09-11T06:34:39.419Z,76.16
2018-09-11T06:37:08.518Z,76.46
2018-09-11T06:39:37.706Z,75.70
2018-09-11T06:42:06.940Z,76.10
2018-09-11T06:44:36.117Z,75.05
2018-09-11T06:47:05.211Z,75.98
2018-09-11T06:49:34.300Z,75.25
2018-09-11T06:52:03.569Z,73.87
2018-09-11T06:54:32.710Z,73.90
2018-09-11T06:57:01.887Z,73.22
2018-09-11T06:59:30.975Z,72.91
2018-09-11T07:02:00.215Z,72.06
2018-09-11T07:04:29.275Z,73.16
2018-09-11T07:06:58.470Z,72.35
2018-09-11T07:09:27.571Z,71.88
2018-09-11T07:11:56.681Z,71.80
2018-09-11T07:14:25.841Z,70.48
2018-09-11T07:16:54.945Z,70.83
2018-09-11T07:19:24.555Z,70.16
2018-09-11T07:21:53.693Z,70.35
2018-09-11T07:24:22.925Z,69.23
2018-09-11T07:26:52.064Z,69.23
2018-09-11T07:29:21.175Z,69.18
2018-09-11T07:31:50.267Z,68.72
2018-09-11T07:34:19.453Z,67.55
2018-09-11T07:36:48.643Z,66.91
2018-09-11T07:39:17.817Z,66.58
2018-09-11T07:41:46.901Z,65.76
2018-09-11T07:44:16.181Z,65.18
2018-09-11T07:46:45.409Z,66.34
2018-09-11T07:49:14.485Z,65.88
2018-09-11T07:51:43.579Z,65.55
2018-09-11T07:54:12.696Z,64.61
2018-09-11T07:56:41.785Z,65.13
2018-09-11T07:59:10.915Z,64.23
2018-09-11T08:01:40.004Z,63.83
2018-09-11T08:04:09.215Z,63.35
2018-09-11T08:06:38.392Z,62.72
2018-09-11T08:09:10.737Z,62.75
2018-09-11T08:11:39.889Z,63.96
2018-09-11T08:14:09.513Z,64.16
2018-09-11T08:16:38.748Z,64.23
2018-09-11T08:19:07.856Z,63.33
2018-09-11T08:21:37.074Z,62.11
2018-09-11T08:24:06.505Z,61.94
2018-09-11T08:26:35.760Z,62.38
2018-09-11T08:29:04.886Z,61.66
2018-09-11T08:31:34.061Z,62.64
2018-09-11T08:34:03.310Z,63.44
2018-09-11T08:36:32.458Z,62.61
2018-09-11T08:39:01.835Z,62.57
2018-09-11T08:41:30.892Z,61.98
2018-09-11T08:44:00.059Z,61.42
2018-09-11T08:46:29.194Z,62.16
2018-09-11T08:48:58.335Z,61.72
2018-09-11T08:51:27.421Z,60.63
2018-09-11T08:53:56.612Z,61.37
2018-09-11T08:56:25.820Z,60.94
2018-09-11T08:58:54.924Z,60.91
2018-09-11T09:01:24.021Z,61.58
2018-09-11T09:03:53.144Z,60.78
2018-09-11T09:06:22.254Z,60.53
2018-09-11T09:08:51.424Z,61.87
2018-09-11T09:11:20.548Z,61.63
2018-09-11T09:13:49.664Z,61.85
2018-09-11T09:16:19.188Z,60.31
2018-09-11T09:18:48.514Z,60.32
2018-09-11T09:21:17.721Z,60.13
2018-09-11T09:23:46.853Z,60.06
2018-09-11T09:26:16.000Z,60.92
2018-09-11T09:28:45.116Z,60.35
2018-09-11T09:31:14.299Z,60.14
2018-09-11T09:33:43.590Z,60.04
2018-09-11T09:36:12.697Z,59.73
2018-09-11T09:38:41.853Z,58.53
2018-09-11T09:41:10.953Z,60.34
2018-09-11T09:43:40.085Z,60.93
2018-09-11T09:46:09.313Z,57.38
2018-09-11T09:48:38.497Z,59.08
2018-09-11T09:51:07.670Z,59.63
2018-09-11T09:53:36.777Z,59.82
2018-09-11T09:56:05.962Z,56.70
2018-09-11T09:58:35.168Z,56.87
2018-09-11T10:01:09.661Z,59.30
2018-09-11T10:03:38.776Z,57.07
2018-09-11T10:06:08.040Z,57.14
2018-09-11T10:08:37.264Z,55.37
2018-09-11T10:11:06.605Z,56.13
2018-09-11T10:13:35.806Z,57.04
2018-09-11T10:16:04.916Z,55.93
2018-09-11T10:18:34.051Z,53.86
2018-09-11T10:21:03.184Z,55.01
2018-09-11T10:23:32.293Z,55.28
2018-09-11T10:26:01.560Z,55.45
2018-09-11T10:28:30.647Z,54.53
2018-09-11T10:30:59.768Z,55.35
2018-09-11T10:33:28.918Z,55.20
2018-09-11T10:35:58.045Z,53.86
2018-09-11T10:38:27.312Z,54.46
2018-09-11T10:40:56.372Z,53.14
2018-09-11T10:43:25.512Z,53.06
2018-09-11T10:45:54.646Z,53.28
2018-09-11T10:48:23.802Z,53.16
2018-09-11T10:50:52.914Z,51.29
2018-09-11T10:53:22.194Z,52.38
2018-09-11T10:55:51.390Z,51.04
2018-09-11T10:58:20.538Z,48.87
2018-09-11T11:00:49.974Z,52.00
2018-09-11T11:03:19.064Z,50.54
2018-09-11T11:05:48.220Z,50.64
2018-09-11T11:08:17.376Z,51.14
2018-09-11T11:10:46.462Z,49.44
2018-09-11T11:13:15.694Z,47.10
2018-09-11T11:15:44.898Z,49.10
2018-09-11T11:18:13.999Z,49.16
2018-09-11T11:20:43.098Z,45.56
2018-09-11T11:23:12.296Z,46.23
2018-09-11T11:25:41.556Z,45.45
2018-09-11T11:28:10.685Z,47.13
2018-09-11T11:30:39.781Z,44.22
2018-09-11T11:33:08.947Z,45.09
2018-09-11T11:35:38.062Z,44.57
2018-09-11T11:38:07.163Z,44.77
2018-09-11T11:40:36.350Z,43.59
2018-09-11T11:43:05.509Z,43.66
2018-09-11T11:45:34.669Z,42.12
2018-09-11T11:48:03.915Z,41.85
2018-09-11T11:50:33.049Z,42.10
2018-09-11T11:53:02.274Z,40.82
2018-09-11T11:55:31.515Z,38.72
2018-09-11T11:58:00.553Z,38.16
2018-09-11T12:00:29.759Z,37.97
2018-09-11T12:02:58.919Z,36.75
2018-09-11T12:05:28.037Z,36.21
2018-09-11T12:07:57.219Z,36.12
2018-09-11T12:10:26.307Z,37.14
2018-09-11T12:12:55.492Z,36.63
2018-09-11T12:15:24.612Z,35.26
2018-09-11T12:17:53.740Z,34.97
2018-09-11T12:20:22.901Z,34.08
2018-09-11T12:22:52.214Z,33.47
2018-09-11T12:25:21.643Z,32.41
2018-09-11T12:27:50.798Z,31.89
2018-09-11T12:30:20.107Z,32.91
2018-09-11T12:32:49.384Z,32.00
2018-09-11T12:35:18.492Z,31.52
2018-09-11T12:37:47.693Z,30.66
2018-09-11T12:40:16.972Z,32.31
2018-09-11T12:42:46.084Z,33.36
2018-09-11T12:45:15.222Z,32.12
2018-09-11T12:47:44.848Z,32.02
2018-09-11T12:50:13.568Z,31.22
2018-09-11T12:52:42.765Z,30.37
2018-09-11T12:55:12.008Z,31.04
2018-09-11T12:57:47.717Z,30.57
2018-09-11T13:00:17.127Z,30.33
2018-09-11T13:02:46.213Z,30.49
2018-09-11T13:05:15.349Z,30.82
2018-09-11T13:07:44.417Z,30.68
2018-09-11T13:10:13.613Z,30.15
2018-09-11T13:12:43.323Z,28.95
2018-09-11T13:15:12.720Z,29.54
2018-09-11T13:17:41.813Z,29.35
2018-09-11T13:20:10.955Z,30.39
2018-09-11T13:22:40.073Z,28.25
2018-09-11T13:25:09.282Z,28.50
2018-09-11T13:27:38.408Z,27.33
2018-09-11T13:30:07.524Z,27.30
2018-09-11T13:32:36.591Z,25.54
2018-09-11T13:35:05.697Z,26.33
2018-09-11T13:37:34.813Z,26.45
2018-09-11T13:40:03.980Z,25.73
2018-09-11T13:42:33.099Z,24.79
2018-09-11T13:45:02.270Z,26.28
2018-09-11T13:47:31.430Z,28.60
2018-09-11T13:50:01.318Z,26.43
2018-09-11T13:52:30.467Z,27.74
2018-09-11T13:54:59.657Z,27.09
2018-09-11T13:57:29.032Z,25.67
2018-09-11T13:59:58.200Z,25.00
2018-09-11T14:02:27.301Z,26.08
2018-09-11T14:04:56.385Z,24.94
2018-09-11T14:07:25.541Z,24.90
2018-09-11T14:09:54.637Z,26.01
2018-09-11T14:12:23.727Z,23.11
2018-09-11T14:14:52.821Z,24.04
2018-09-11T14:17:21.959Z,25.37
2018-09-11T14:19:51.145Z,24.90
2018-09-11T14:22:20.317Z,25.57
2018-09-11T14:24:49.483Z,25.01
2018-09-11T14:27:18.648Z,23.88
2018-09-11T14:29:47.820Z,23.63
2018-09-11T14:32:16.920Z,24.57
2018-09-11T14:34:46.225Z,23.88
2018-09-11T14:37:15.329Z,24.02
2018-09-11T14:39:44.596Z,24.61
2018-09-11T14:42:13.732Z,24.20
2018-09-11T14:44:42.926Z,23.92
2018-09-11T14:47:12.104Z,24.63
2018-09-11T14:49:41.214Z,23.16
2018-09-11T14:52:10.412Z,22.89
2018-09-11T14:54:39.662Z,23.49
2018-09-11T14:57:08.788Z,22.79
2018-09-11T14:59:37.884Z,23.99
2018-09-11T15:02:06.986Z,24.44
2018-09-11T15:04:36.095Z,22.86
2018-09-11T15:07:05.375Z,22.83
2018-09-11T15:09:34.469Z,22.36
2018-09-11T15:12:03.653Z,24.13
2018-09-11T15:14:32.760Z,24.56
2018-09-11T15:17:01.869Z,23.25
2018-09-11T15:19:30.989Z,24.86
2018-09-11T15:22:00.093Z,25.76
2018-09-11T15:24:29.201Z,24.18
2018-09-11T15:26:58.357Z,24.32
2018-09-11T15:29:27.527Z,25.53
2018-09-11T15:31:56.643Z,25.00
2018-09-11T15:34:25.749Z,25.26
2018-09-11T15:36:54.937Z,25.44
2018-09-11T15:39:24.017Z,25.40
2018-09-11T15:41:53.170Z,23.88
2018-09-11T15:44:22.238Z,24.51
2018-09-11T15:46:51.515Z,24.27
2018-09-11T15:49:20.595Z,25.39
2018-09-11T15:51:49.672Z,25.02
2018-09-11T15:54:18.768Z,25.24
2018-09-11T15:56:47.872Z,24.63
2018-09-11T15:59:17.240Z,24.67
2018-09-11T16:01:46.536Z,25.59
2018-09-11T16:04:15.657Z,26.20
2018-09-11T16:06:44.796Z,26.15
2018-09-11T16:09:14.022Z,27.06
2018-09-11T16:11:43.113Z,27.27
2018-09-11T16:14:12.288Z,26.63
2018-09-11T16:16:41.487Z,25.93
2018-09-11T16:19:10.700Z,25.94
2018-09-11T16:21:39.956Z,26.10
2018-09-11T16:24:09.076Z,27.27
2018-09-11T16:26:38.262Z,27.98
2018-09-11T16:29:07.356Z,29.43
2018-09-11T16:31:36.566Z,30.43
2018-09-11T16:34:05.684Z,32.58
2018-09-11T16:36:34.833Z,31.08
2018-09-11T16:39:05.434Z,33.52
2018-09-11T16:41:34.662Z,32.07
2018-09-11T16:44:03.925Z,33.04
2018-09-11T16:46:33.141Z,33.29
2018-09-11T16:49:02.290Z,33.83
2018-09-11T16:51:31.392Z,33.85
2018-09-11T16:54:00.503Z,34.17
2018-09-11T16:56:29.669Z,34.98
2018-09-11T16:58:58.777Z,35.92
2018-09-11T17:01:27.933Z,37.27
2018-09-11T17:03:57.069Z,39.03
2018-09-11T17:06:27.321Z,40.45
2018-09-11T17:08:56.413Z,40.91
2018-09-11T17:11:25.573Z,41.36
2018-09-11T17:13:54.803Z,41.56
2018-09-11T17:16:23.957Z,42.18
2018-09-11T17:18:53.057Z,42.36
2018-09-11T17:21:22.233Z,43.30
2018-09-11T17:23:51.429Z,43.53
2018-09-11T17:26:20.558Z,44.65
2018-09-11T17:28:49.661Z,45.79
2018-09-11T17:31:18.821Z,46.01
2018-09-11T17:33:48.283Z,47.26
2018-09-11T17:36:17.446Z,47.36
2018-09-11T17:38:46.590Z,49.16
2018-09-11T17:41:15.815Z,49.43
2018-09-11T17:43:44.920Z,49.62
2018-09-11T17:46:14.048Z,49.92
2018-09-11T17:48:43.334Z,51.08
2018-09-11T17:51:12.483Z,50.70
2018-09-11T17:53:41.621Z,50.87
2018-09-11T17:56:10.783Z,51.23
2018-09-11T17:58:39.847Z,50.80
2018-09-11T18:01:08.908Z,52.07
2018-09-11T18:03:38.131Z,52.95
2018-09-11T18:06:07.756Z,52.34
2018-09-11T18:08:36.883Z,52.89
2018-09-11T18:11:09.014Z,53.75
2018-09-11T18:13:38.175Z,54.74
2018-09-11T18:16:07.413Z,54.66
2018-09-11T18:18:37.489Z,55.30
2018-09-11T18:21:06.603Z,55.70
2018-09-11T18:23:35.773Z,55.46
2018-09-11T18:26:04.915Z,54.59
2018-09-11T18:28:33.983Z,54.20
2018-09-11T18:31:03.164Z,55.67
2018-09-11T18:33:32.269Z,56.29
2018-09-11T18:36:01.456Z,55.35
2018-09-11T18:38:30.606Z,56.34
2018-09-11T18:40:59.704Z,57.17
2018-09-11T18:43:28.849Z,56.52
2018-09-11T18:45:58.036Z,57.07
2018-09-11T18:48:27.141Z,57.51
2018-09-11T18:50:56.261Z,57.46
2018-09-11T18:53:25.374Z,58.46
2018-09-11T18:55:54.709Z,57.83
2018-09-11T18:58:23.793Z,58.80
2018-09-11T19:00:53.001Z,59.91
2018-09-11T19:03:22.106Z,60.02
2018-09-11T19:05:51.209Z,59.95
2018-09-11T19:08:20.318Z,60.41
2018-09-11T19:10:49.618Z,60.91
2018-09-11T19:13:18.946Z,60.90
2018-09-11T19:15:48.125Z,60.86
2018-09-11T19:18:17.281Z,61.27
2018-09-11T19:20:47.399Z,61.83
2018-09-11T19:23:16.553Z,62.17
2018-09-11T19:25:45.670Z,61.99
2018-09-11T19:28:14.801Z,61.98
2018-09-11T19:30:43.913Z,62.47
2018-09-11T19:33:13.105Z,62.70
2018-09-11T19:35:42.321Z,63.98
2018-09-11T19:38:11.437Z,62.46
2018-09-11T19:40:40.717Z,60.74
2018-09-11T19:43:10.006Z,60.34
2018-09-11T19:45:39.434Z,62.21
2018-09-11T19:48:08.609Z,64.08
2018-09-11T19:50:38.017Z,63.94
2018-09-11T19:53:06.999Z,63.87
2018-09-11T19:55:36.128Z,63.44
2018-09-11T19:58:05.266Z,63.46
2018-09-11T20:00:34.984Z,63.69
2018-09-11T20:03:04.200Z,64.41
2018-09-11T20:05:33.390Z,64.85
2018-09-11T20:08:02.565Z,65.64
2018-09-11T20:10:31.670Z,63.96
2018-09-11T20:13:00.805Z,64.50
2018-09-11T20:15:29.977Z,65.69
2018-09-11T20:17:59.149Z,66.38
2018-09-11T20:20:28.261Z,67.37
2018-09-11T20:22:57.363Z,67.55
2018-09-11T20:25:26.585Z,67.38
2018-09-11T20:27:55.692Z,67.43
2018-09-11T20:30:24.846Z,67.80
2018-09-11T20:32:53.997Z,68.15
2018-09-11T20:35:23.142Z,68.61
2018-09-11T20:37:52.910Z,68.16
2018-09-11T20:40:22.108Z,68.44
2018-09-11T20:42:51.238Z,68.92
2018-09-11T20:45:20.434Z,69.23
2018-09-11T20:47:49.561Z,70.35
2018-09-11T20:50:18.705Z,70.21
2018-09-11T20:52:47.831Z,70.05
2018-09-11T20:55:16.947Z,71.37
2018-09-11T20:57:46.113Z,71.70
2018-09-11T21:00:15.233Z,72.63
2018-09-11T21:02:44.442Z,72.45
2018-09-11T21:05:13.682Z,73.16
2018-09-11T21:07:42.841Z,71.43
2018-09-11T21:10:12.029Z,72.30
2018-09-11T21:12:41.133Z,74.18
2018-09-11T21:15:10.447Z,74.31
2018-09-11T21:17:39.687Z,76.11
2018-09-11T21:20:08.797Z,75.96
2018-09-11T21:22:38.317Z,75.72
2018-09-11T21:25:14.140Z,75.66
2018-09-11T21:27:43.269Z,76.53
2018-09-11T21:30:12.507Z,75.46
2018-09-11T21:32:41.658Z,77.23
2018-09-11T21:35:10.830Z,78.76
2018-09-11T21:37:40.015Z,81.32
2018-09-11T21:40:09.189Z,80.66
2018-09-11T21:42:38.352Z,81.37
2018-09-11T21:45:07.467Z,81.50
2018-09-11T21:47:36.644Z,81.98
2018-09-11T21:50:05.767Z,82.78
2018-09-11T21:52:34.863Z,82.91
2018-09-11T21:55:04.033Z,83.42
2018-09-11T21:57:33.760Z,83.29
2018-09-11T22:00:03.002Z,81.92
2018-09-11T22:02:32.205Z,83.33
2018-09-11T22:05:01.329Z,83.62
2018-09-11T22:07:30.516Z,84.46
2018-09-11T22:09:59.696Z,84.46
2018-09-11T22:12:28.808Z,85.56
2018-09-11T22:14:57.920Z,85.29
2018-09-11T22:17:27.032Z,85.50
2018-09-11T22:19:56.138Z,85.51
2018-09-11T22:22:25.304Z,86.12
2018-09-11T22:24:54.570Z,85.15
2018-09-11T22:27:23.770Z,84.72
2018-09-11T22:29:52.857Z,85.78
2018-09-11T22:32:22.017Z,85.95
2018-09-11T22:34:51.179Z,86.88
2018-09-11T22:37:20.293Z,87.75
2018-09-11T22:39:49.429Z,86.35
2018-09-11T22:42:18.522Z,86.21
2018-09-11T22:44:47.651Z,87.49
2018-09-11T22:47:16.769Z,87.40
2018-09-11T22:49:45.969Z,87.84
2018-09-11T22:52:15.155Z,87.50
2018-09-11T22:54:44.367Z,87.03
2018-09-11T22:57:13.457Z,86.76
2018-09-11T22:59:42.798Z,87.97
2018-09-11T23:02:11.953Z,88.46
2018-09-11T23:04:41.291Z,88.10
2018-09-11T23:07:10.433Z,89.11
2018-09-11T23:09:39.571Z,88.69
2018-09-11T23:12:08.664Z,88.98
2018-09-11T23:14:37.910Z,89.08
2018-09-11T23:17:07.073Z,89.53
2018-09-11T23:19:36.145Z,89.53
2018-09-11T23:22:05.403Z,89.53
2018-09-11T23:24:34.664Z,90.55
2018-09-11T23:27:03.788Z,90.95
2018-09-11T23:29:32.904Z,90.67
2018-09-11T23:32:02.022Z,91.94
2018-09-11T23:34:31.141Z,91.91
2018-09-11T23:37:00.244Z,91.13
2018-09-11T23:39:29.398Z,91.37
2018-09-11T23:41:58.610Z,91.75
2018-09-11T23:44:27.808Z,92.07
2018-09-11T23:46:57.333Z,92.90
2018-09-11T23:49:26.466Z,93.32
2018-09-11T23:51:55.566Z,93.76
2018-09-11T23:54:24.704Z,93.05
2018-09-11T23:56:54.025Z,93.01
2018-09-11T23:59:23.399Z,93.16
